Kaministiqua — CFN4612 — position and weather

sailwx.info

Track history (hours):
 
Tides and Currents Weather Stations Pressure Air Temp Water Temp Dewpoint Dewpoint Depression Visibility Wind Speed Wind Dir Waves Ship Positions

Kaministiqua

Last reported at 2017-Apr-30 10:48 UTC. Time now 2017-May-27 09:53 UTC.
Position N 45°13' W 074°18'.
Warning: this ship's position is 26 days out of date.

Length 223 m; draft 8 m.

Type: Cargo ship. MMSI: 316009457.

Date/timePositionNaut miles runAvg speedWind from/ knotsBaromVisibWave heightAir tempDewpointWater temp
2017-Apr-30 10:48N 45°13' W 074°18'310.9
2017-Apr-30 10:30N 45°14' W 074°13'9 8.7
2017-Apr-30 09:27N 45°14' W 074°00'4 8.4
2017-Apr-30 09:00N 45°17' W 073°57'2 3.6
2017-Apr-30 08:31N 45°18' W 073°56'1 1.1
2017-Apr-30 08:00N 45°19' W 073°55'0 0.6
2017-Apr-30 07:31N 45°19' W 073°55'1 1.7
2017-Apr-30 07:00N 45°20' W 073°55'2 3.6
2017-Apr-30 06:31N 45°21' W 073°53'3 5.5
2017-Apr-30 06:01N 45°22' W 073°49'5 9.5
2017-Apr-30 05:31N 45°24' W 073°43'3 5.7
2017-Apr-30 05:00N 45°24' W 073°39'3 5.4
2017-Apr-30 04:28N 45°24' W 073°35'1 1.7
2017-Apr-30 04:00N 45°24' W 073°34'1 1.3
2017-Apr-30 03:29N 45°24' W 073°33'  
2017-Apr-24 18:55N 45°28' W 073°30'4 5.6
2017-Apr-24 18:16N 45°24' W 073°32'1 3.5
2017-Apr-24 17:54N 45°24' W 073°34'0 0.3
2017-Apr-24 17:30N 45°24' W 073°34'1 1.9
2017-Apr-24 17:00N 45°24' W 073°35'3 4.9
2017-Apr-24 16:29N 45°24' W 073°39'2 5.1
2017-Apr-24 16:00N 45°25' W 073°42'4 8.9
2017-Apr-24 15:30N 45°23' W 073°48'611.2
2017-Apr-24 15:00N 45°20' W 073°55'1 1.6
2017-Apr-24 14:30N 45°19' W 073°55'1 0.9
2017-Apr-24 13:30N 45°18' W 073°56'1 1.6
2017-Apr-24 12:57N 45°17' W 073°56'2 3.8
2017-Apr-24 12:29N 45°16' W 073°57'4 7.4
2017-Apr-24 12:00N 45°14' W 074°01'510.2
2017-Apr-24 11:30N 45°14' W 074°09'  
Track history (hours):
 
Tides and Currents Weather Stations Pressure Air Temp Water Temp Dewpoint Dewpoint Depression Visibility Wind Speed Wind Dir Waves Ship Positions

Kaministiqua

Last reported at 2017-Apr-30 10:48 UTC. Time now 2017-May-27 09:53 UTC.
Position N 45°13' W 074°18'.
Warning: this ship's position is 26 days out of date.

Length 223 m; draft 8 m.

Type: Cargo ship. MMSI: 316009457.

Date/timePositionNaut miles runAvg speedWind from/ knotsBaromVisibWave heightAir tempDewpointWater temp
2017-Apr-30 10:48N 45°13' W 074°18'310.9
2017-Apr-30 10:30N 45°14' W 074°13'9 8.7
2017-Apr-30 09:27N 45°14' W 074°00'4 8.4
2017-Apr-30 09:00N 45°17' W 073°57'2 3.6
2017-Apr-30 08:31N 45°18' W 073°56'1 1.1
2017-Apr-30 08:00N 45°19' W 073°55'0 0.6
2017-Apr-30 07:31N 45°19' W 073°55'1 1.7
2017-Apr-30 07:00N 45°20' W 073°55'2 3.6
2017-Apr-30 06:31N 45°21' W 073°53'3 5.5
2017-Apr-30 06:01N 45°22' W 073°49'5 9.5
2017-Apr-30 05:31N 45°24' W 073°43'3 5.7
2017-Apr-30 05:00N 45°24' W 073°39'3 5.4
2017-Apr-30 04:28N 45°24' W 073°35'1 1.7
2017-Apr-30 04:00N 45°24' W 073°34'1 1.3
2017-Apr-30 03:29N 45°24' W 073°33'  
2017-Apr-24 18:55N 45°28' W 073°30'4 5.6
2017-Apr-24 18:16N 45°24' W 073°32'1 3.5
2017-Apr-24 17:54N 45°24' W 073°34'0 0.3
2017-Apr-24 17:30N 45°24' W 073°34'1 1.9
2017-Apr-24 17:00N 45°24' W 073°35'3 4.9
2017-Apr-24 16:29N 45°24' W 073°39'2 5.1
2017-Apr-24 16:00N 45°25' W 073°42'4 8.9
2017-Apr-24 15:30N 45°23' W 073°48'611.2
2017-Apr-24 15:00N 45°20' W 073°55'1 1.6
2017-Apr-24 14:30N 45°19' W 073°55'1 0.9
2017-Apr-24 13:30N 45°18' W 073°56'1 1.6
2017-Apr-24 12:57N 45°17' W 073°56'2 3.8
2017-Apr-24 12:29N 45°16' W 073°57'4 7.4
2017-Apr-24 12:00N 45°14' W 074°01'510.2
2017-Apr-24 11:30N 45°14' W 074°09'  

Dump ship's entire track history